x

Buoy A01 - Mass. Bay/stellwagen (44029) Wave Buoy

8:04 - Sat 29th Apr 2017 All times are EDT. -4 hours from GMT.

  • Sig Wave height 2.6ft
  • Peak Period 8s
  • Wind
    2mph, 4mph gusts
  • Sea Temp 47°f
  • Luft Temp 51°f
  • Sea Pressure 1014.3mb
  • Buoy A01 - Mass. Bay/stellwagen
  • Buoy A01 - Mass. Bay/stellwagen

More Historic Weather Station data

Upgrade to MSW Pro to gain access to the past 30 days of data for over 8000 Wavebouys and Weather Stations around the globe.

Join Pro

Comparision Forecast

View Surf forecast
   
Sa 04/29 8:04 2.5ft 8s 2 4 mph 1014.3mb 47f 51f
7:04 3ft 8s 7
mph
1014.1mb 47f 51f
6:04 2.5ft 8s 7 9 mph 1014.2mb 47f 52f
5:04 2ft 8s 7 9 mph 1014.4mb 48f 52f
4:04 2ft 8s 2 4 mph 1014mb 47f 52f
3:04 1.6ft 8s 4
mph
1014mb 47f 52f
2:04 2ft 9s 4
mph
1014.7mb 48f 53f
1:04 2.5ft 9s 9
mph
1014.8mb 47f 54f
12:04 3ft 9s 9 11 mph 1014.6mb 47f 56f
Fr 04/28 11:04 2.5ft 9s 9 11 mph 1014.6mb 46f 56f
10:04 2.5ft 9s 7
mph
1014.8mb 46f 55f
9:04 3ft 9s 7 9 mph 1014.2mb 46f 54f
8:04 4ft 8s 11
mph
1013.4mb 46f 52f
7:04 4.5ft 8s 11 13 mph 1012.7mb 46f 55f
6:04 3ft 9s 11 13 mph 1012.2mb 47f 56f
5:04 3ft 8s 9 11 mph 1012.3mb 47f 54f
4:04 3ft 9s 7 9 mph 1012.4mb 48f 53f
3:04 2.5ft 9s 9
mph
1012.9mb 48f 51f
2:04 3ft 9s 7 9 mph 1013.2mb 48f 51f
1:04 3ft 9s 2 4 mph 1013.2mb 48f 52f
12:04 2.5ft 9s 4 7 mph 1013.8mb 47f 50f
11:04 3ft 9s 4
mph
1013.8mb 46f 49f
10:04 3.5ft 10s 4 7 mph 1013mb 46f 49f
9:04 3.5ft 9s 4 7 mph 1013.7mb 46f 48f
8:04 3.5ft 10s 7 9 mph 1013.7mb 46f 48f
7:04 3.5ft 9s 9 11 mph 1013.3mb 46f 48f
6:04 3.5ft 9s 13 16 mph 1013.1mb 46f 49f
5:04 4.5ft 9s 11
mph
1012.9mb 47f 49f
4:04 3.5ft 10s 11 13 mph 1013.3mb 46f 49f
3:04 5ft 9s 9
mph
1012.9mb 46f 49f
2:04 3.5ft 9s 11 13 mph 1013mb 47f 50f
1:04 4.5ft 10s 9 11 mph 1013mb 46f 50f
12:04 3.5ft 10s 11
mph
1012.9mb 47f 50f
Do 04/27 11:04 3.5ft 10s 11
mph
1013.1mb 47f 50f
10:04 4ft 10s 7 9 mph 1013.3mb 47f 50f
9:04 4.5ft 10s 2 4 mph 1013.4mb 47f 49f
8:04 5ft 9s 7
mph
1013.3mb 47f 48f
7:04 4.5ft 9s 4 7 mph 1012.5mb 46f 48f
6:04 4.5ft 9s 7
mph
1013mb 47f 47f
5:04 4ft 10s 7 9 mph 1012.6mb 47f 47f
4:04 3.5ft 9s 9 11 mph 1012.7mb 47f 48f
3:04 3.5ft 10s 7 9 mph 1012.7mb 49f 48f
2:04 4ft 10s 7
mph
1012.6mb 47f 47f
1:04 4ft 10s 4 7 mph 1012.5mb 46f 47f
12:04 3.5ft 9s 4
mph
1012.9mb 46f 48f
11:04 4.5ft 10s 2
mph
1013mb 46f 48f
10:04 4.5ft 9s 2 4 mph 1012.8mb 46f 47f
9:04 4ft 10s 4
mph
1012.4mb 45f 47f
8:04 6ft 11s 4 7 mph 1012.6mb 45f 46f
7:04 6.5ft 14s 4 7 mph 1012.1mb 45f 46f
6:04 4ft 10s 4 7 mph 1011.3mb 45f 46f
5:04 4.5ft 9s 7 9 mph 1010.8mb 45f 46f
4:04 5ft 9s 4 7 mph 1010.5mb 45f 46f
3:04 4.5ft 9s 4 9 mph 1010.1mb 45f 46f
2:04 4.5ft 8s 4
mph
1010.2mb 45f 46f
1:04 4.5ft 7s 4 7 mph 1010.1mb 45f 46f
12:04 4.5ft 7s 7
mph
1010mb 45f 47f
Mi 04/26 11:04 5ft 8s 4 7 mph 1009.8mb 45f 47f
10:04 4.5ft 8s 7
mph
1009.4mb 46f 47f
9:04 4.5ft 7s 13 16 mph 1009.4mb 46f 47f
8:04 4.5ft 7s 13 16 mph 1009.5mb 46f 48f
7:04 5ft 7s 11 13 mph 1009.6mb 46f 49f
6:04 5ft 7s 9 11 mph 1009.6mb 46f 48f
5:04 5ft 7s 11
mph
1009.4mb 46f 48f
4:04 4.5ft 7s 11
mph
1009.7mb 46f 48f
3:04 5.5ft 7s 9
mph
1010.2mb 45f 48f
2:04 4.5ft 6s 11 13 mph 1010.3mb 45f 49f
1:04 5ft 7s 13 16 mph 1010.5mb 46f 49f
12:04 5ft 7s 16 20 mph 1010.9mb 46f 50f
11:04 6ft 7s 18 20 mph 1010.8mb 46f 50f
10:04 5.5ft 7s 18 20 mph 1011.3mb 46f 50f
9:04 5ft 7s 13 16 mph 1011.8mb 46f 49f
8:04 6.5ft 7s 20 22 mph 1011.9mb 46f 49f
7:04 5ft 7s 13 16 mph 1012.4mb 46f 48f
6:04 5ft 7s 9
mph
1012.9mb 45f 48f
5:04 4.5ft 7s 13 16 mph 1012.9mb 45f 48f
4:04 5ft 7s 9 13 mph 1014mb 45f 48f
3:04 6ft 7s 7 9 mph 1015.1mb 45f 48f
2:04 5.5ft 7s 7 16 mph 1015.7mb 45f 48f
1:04 5.5ft 7s 18 20 mph 1015.7mb 45f 48f
12:04  -   -  9 11 mph 1016.8mb 45f 48f
Di 04/25 11:04 6ft 7s 4 13 mph 1017.8mb 45f 48f
10:04 5.5ft 6s 13 16 mph 1018.6mb 45f 47f
9:04 6ft 6s 16 18 mph 1019.5mb 45f 46f
8:04 5.5ft 6s 18 20 mph 1020.1mb 45f 46f
7:04 5ft 6s 13 16 mph 1021.3mb 46f 46f
6:04 5.5ft 6s 13 16 mph 1022mb 45f 46f
5:04 5ft 6s 18 20 mph 1022.1mb 45f 45f
4:04 5.5ft 5s 18 22 mph 1022.8mb 45f 45f
3:04 5ft 5s 20 25 mph 1023.3mb 45f 44f
2:04 4.5ft 5s 20 25 mph 1024.1mb 45f 45f